Time;durP1;ratioP1;P1;durP2;ratioP2;P2;SDS_P1;SDS_P2;PMS_P1;PMS_P2;Temp;Humidity;BMP_temperature;BMP_pressure;BME280_temperature;BME280_humidity;BME280_pressure;Samples;Min_cycle;Max_cycle;Signal;HPM_P1;HPM_P2
2022/12/21 00:02:03;;;;;;;;;;;;;;;;;;4995587;28;19914;-78
2022/12/21 00:04:29;;;;;;;;;;;;;;;;;;4978766;28;19996;-78
2022/12/21 00:06:54;;;;;;;;;;;;;;;;;;4996337;28;19913;-77
2022/12/21 00:09:19;;;;;;;;;;;;;;;;;;4995688;28;19914;-77
2022/12/21 00:11:45;;;;;;;;;;;;;;;;;;4996195;28;19951;-77
2022/12/21 00:14:10;;;;;;;;;;;;;;;;;;4996081;28;20381;-78
2022/12/21 00:16:35;;;;;;;;;;;;;;;;;;4995332;28;19921;-78
2022/12/21 00:19:01;;;;;;;;;;;;;;;;;;4995561;28;19914;-78
2022/12/21 00:21:26;;;;;;;;;;;;;;;;;;4994846;28;20393;-77
2022/12/21 00:23:51;;;;;;;;;;;;;;;;;;4995953;28;19921;-77
2022/12/21 00:26:17;;;;;;;;;;;;;;;;;;4997804;28;19920;-78
2022/12/21 00:28:42;;;;;;;;;;;;;;;;;;4998250;28;20425;-78
2022/12/21 00:31:08;;;;;;;;;;;;;;;;;;4998300;28;19910;-77
2022/12/21 00:33:34;;;;;;;;;;;;;;;;;;4998799;28;19917;-78
2022/12/21 00:35:59;;;;;;;;;;;;;;;;;;4997395;28;20000;-78
2022/12/21 00:38:25;;;;;;;;;;;;;;;;;;5000296;28;19913;-78
2022/12/21 00:40:50;;;;;;;;;;;;;;;;;;4996602;28;19917;-77
2022/12/21 00:43:16;;;;;;;;;;;;;;;;;;4997304;28;20008;-77
2022/12/21 00:45:41;;;;;;;;;;;;;;;;;;4998749;28;19933;-78
2022/12/21 00:48:08;;;;;;;;;;;;;;;;;;4997621;28;19973;-78
2022/12/21 00:50:33;;;;;;;;;;;;;;;;;;4996999;28;19914;-78
2022/12/21 00:52:58;;;;;;;;;;;;;;;;;;4999118;28;19918;-77
2022/12/21 00:55:24;;;;;;;;;;;;;;;;;;4998864;28;19967;-78
2022/12/21 00:57:49;;;;;;;;;;;;;;;;;;4997720;28;19914;-78
2022/12/21 01:00:15;;;;;;;;;;;;;;;;;;4979187;28;19969;-78
2022/12/21 01:02:40;;;;;;;;;;;;;;;;;;4994702;28;20390;-78
2022/12/21 01:05:06;;;;;;;;;;;;;;;;;;4993421;28;19914;-79
2022/12/21 01:07:31;;;;;;;;;;;;;;;;;;4976753;28;19953;-78
2022/12/21 01:09:57;;;;;;;;;;;;;;;;;;4974873;28;20417;-78
2022/12/21 01:12:22;;;;;;;;;;;;;;;;;;4957676;28;19918;-79
2022/12/21 01:14:47;;;;;;;;;;;;;;;;;;4957735;28;20266;-79
2022/12/21 01:17:13;;;;;;;;;;;;;;;;;;4975335;28;19914;-78
2022/12/21 01:19:38;;;;;;;;;;;;;;;;;;4975123;28;20456;-78
2022/12/21 01:22:03;;;;;;;;;;;;;;;;;;4957784;28;19922;-78
2022/12/21 01:24:29;;;;;;;;;;;;;;;;;;4963504;28;20258;-78
2022/12/21 01:26:54;;;;;;;;;;;;;;;;;;4974365;28;20282;-79
2022/12/21 01:29:20;;;;;;;;;;;;;;;;;;4974790;28;19921;-79
2022/12/21 01:31:46;;;;;;;;;;;;;;;;;;4974578;28;19918;-79
2022/12/21 01:34:11;;;;;;;;;;;;;;;;;;4974610;28;19914;-78
2022/12/21 01:36:37;;;;;;;;;;;;;;;;;;4974880;28;20370;-76
2022/12/21 01:39:06;;;;;;;;;;;;;;;;;;4976426;28;19920;-77
2022/12/21 01:41:31;;;;;;;;;;;;;;;;;;4992542;28;19910;-78
2022/12/21 01:43:57;;;;;;;;;;;;;;;;;;4993749;28;19917;-78
2022/12/21 01:46:22;;;;;;;;;;;;;;;;;;4993916;28;19914;-78
2022/12/21 01:48:48;;;;;;;;;;;;;;;;;;4993827;28;20404;-78
2022/12/21 01:51:13;;;;;;;;;;;;;;;;;;5009173;28;19937;-78
2022/12/21 01:53:38;;;;;;;;;;;;;;;;;;4993715;28;19960;-77
2022/12/21 01:56:04;;;;;;;;;;;;;;;;;;5008836;28;19940;-77
2022/12/21 01:58:29;;;;;;;;;;;;;;;;;;5006799;28;20488;-78
2022/12/21 02:00:56;;;;;;;;;;;;;;;;;;5008927;28;19914;-79
2022/12/21 02:03:21;;;;;;;;;;;;;;;;;;4993376;28;19920;-79
2022/12/21 02:05:46;;;;;;;;;;;;;;;;;;4993679;28;20008;-77
2022/12/21 02:08:14;;;;;;;;;;;;;;;;;;4991793;28;19913;-78
2022/12/21 02:10:40;;;;;;;;;;;;;;;;;;5009093;28;19914;-77
2022/12/21 02:13:05;;;;;;;;;;;;;;;;;;4987142;28;20382;-78
2022/12/21 02:15:30;;;;;;;;;;;;;;;;;;4976603;28;20005;-77
2022/12/21 02:17:56;;;;;;;;;;;;;;;;;;4978539;28;19921;-77
2022/12/21 02:20:21;;;;;;;;;;;;;;;;;;4976995;28;20381;-78
2022/12/21 02:22:47;;;;;;;;;;;;;;;;;;4977253;28;19941;-77
2022/12/21 02:25:12;;;;;;;;;;;;;;;;;;4977312;28;20386;-77
2022/12/21 02:27:37;;;;;;;;;;;;;;;;;;4974500;28;20000;-77
2022/12/21 02:30:05;;;;;;;;;;;;;;;;;;4976102;28;19915;-78
2022/12/21 02:32:30;;;;;;;;;;;;;;;;;;4957608;28;19925;-78
2022/12/21 02:34:56;;;;;;;;;;;;;;;;;;4957857;28;19964;-77
2022/12/21 02:37:21;;;;;;;;;;;;;;;;;;4957750;28;19914;-78
2022/12/21 02:39:49;;;;;;;;;;;;;;;;;;4958406;28;20400;-75
2022/12/21 02:44:12;;;;;;;;;;;;;;;;;;4956708;28;19914;-78
2022/12/21 02:45:02;;;;;;;;;;;;;;;;;;4973613;28;20177;-78
2022/12/21 02:47:29;;;;;;;;;;;;;;;;;;4972304;28;19948;-76
2022/12/21 02:49:54;;;;;;;;;;;;;;;;;;4972629;28;19914;-75
2022/12/21 02:52:20;;;;;;;;;;;;;;;;;;4973667;28;20336;-78
2022/12/21 02:54:46;;;;;;;;;;;;;;;;;;4972542;28;19921;-78
2022/12/21 02:57:12;;;;;;;;;;;;;;;;;;4972561;28;19915;-78
2022/12/21 02:59:38;;;;;;;;;;;;;;;;;;4972311;28;19962;-78
2022/12/21 03:02:03;;;;;;;;;;;;;;;;;;4973814;28;19921;-78
2022/12/21 03:04:28;;;;;;;;;;;;;;;;;;4973728;28;20391;-78
2022/12/21 03:06:54;;;;;;;;;;;;;;;;;;4969757;28;19921;-78
2022/12/21 03:09:20;;;;;;;;;;;;;;;;;;4992418;28;20008;-78
2022/12/21 03:11:45;;;;;;;;;;;;;;;;;;4993070;28;19914;-78
2022/12/21 03:14:11;;;;;;;;;;;;;;;;;;4991228;28;19964;-78
2022/12/21 03:16:37;;;;;;;;;;;;;;;;;;4991611;28;19918;-78
2022/12/21 03:19:02;;;;;;;;;;;;;;;;;;4993299;28;20308;-78
2022/12/21 03:21:29;;;;;;;;;;;;;;;;;;4993969;28;19914;-77
2022/12/21 03:23:54;;;;;;;;;;;;;;;;;;4995832;28;19921;-78
2022/12/21 03:26:19;;;;;;;;;;;;;;;;;;4994551;28;20373;-78
2022/12/21 03:28:45;;;;;;;;;;;;;;;;;;4996078;28;19957;-77
2022/12/21 03:31:10;;;;;;;;;;;;;;;;;;4978894;28;20389;-77
2022/12/21 03:33:35;;;;;;;;;;;;;;;;;;4994427;28;19913;-77
2022/12/21 03:36:01;;;;;;;;;;;;;;;;;;4994746;28;20000;-77
2022/12/21 03:38:26;;;;;;;;;;;;;;;;;;4995180;28;20337;-77
2022/12/21 03:40:51;;;;;;;;;;;;;;;;;;4995553;28;19914;-77
2022/12/21 03:43:17;;;;;;;;;;;;;;;;;;4994461;28;20334;-78
2022/12/21 03:45:42;;;;;;;;;;;;;;;;;;4994708;28;20262;-77
2022/12/21 03:48:08;;;;;;;;;;;;;;;;;;4978307;28;19956;-77
2022/12/21 03:50:33;;;;;;;;;;;;;;;;;;4995626;28;20065;-78
2022/12/21 03:53:00;;;;;;;;;;;;;;;;;;4994013;28;19918;-78
2022/12/21 03:55:25;;;;;;;;;;;;;;;;;;4993451;28;20266;-77
2022/12/21 03:57:50;;;;;;;;;;;;;;;;;;4978076;28;20004;-78
2022/12/21 04:00:16;;;;;;;;;;;;;;;;;;4994193;28;19913;-78
2022/12/21 04:02:41;;;;;;;;;;;;;;;;;;4995243;28;19914;-78
2022/12/21 04:05:07;;;;;;;;;;;;;;;;;;4995331;28;19918;-78
2022/12/21 04:07:32;;;;;;;;;;;;;;;;;;4977828;28;19909;-78
2022/12/21 04:09:58;;;;;;;;;;;;;;;;;;4994138;28;20439;-78
2022/12/21 04:12:36;;;;;;;;;;;;;;;;;;4994889;28;19918;-77
2022/12/21 04:15:01;;;;;;;;;;;;;;;;;;4993898;28;19914;-78
2022/12/21 04:17:26;;;;;;;;;;;;;;;;;;4993821;28;19924;-78
2022/12/21 04:19:58;;;;;;;;;;;;;;;;;;4995077;28;20373;-78
2022/12/21 04:28:10;;;;;;;;;;;;;;;;;;4993812;28;19918;-78
2022/12/21 04:30:36;;;;;;;;;;;;;;;;;;4993441;28;19914;-78
2022/12/21 04:33:01;;;;;;;;;;;;;;;;;;4993585;28;19921;-78
2022/12/21 04:35:27;;;;;;;;;;;;;;;;;;4993580;28;19956;-78
2022/12/21 04:37:52;;;;;;;;;;;;;;;;;;4994928;28;19940;-78
2022/12/21 04:40:18;;;;;;;;;;;;;;;;;;4993721;28;20550;-77
2022/12/21 04:42:43;;;;;;;;;;;;;;;;;;4993284;28;19914;-78
2022/12/21 04:45:08;;;;;;;;;;;;;;;;;;4994857;28;20334;-78
2022/12/21 04:47:34;;;;;;;;;;;;;;;;;;4992940;28;19921;-78
2022/12/21 04:49:59;;;;;;;;;;;;;;;;;;4993479;28;19921;-78
2022/12/21 04:52:25;;;;;;;;;;;;;;;;;;4994241;28;19964;-78
2022/12/21 04:54:50;;;;;;;;;;;;;;;;;;4993275;28;20012;-77
2022/12/21 04:57:16;;;;;;;;;;;;;;;;;;4994438;28;19914;-78
2022/12/21 04:59:42;;;;;;;;;;;;;;;;;;4994254;28;20404;-79
2022/12/21 05:02:07;;;;;;;;;;;;;;;;;;4993280;28;20004;-78
2022/12/21 05:04:32;;;;;;;;;;;;;;;;;;4992174;28;19920;-76
2022/12/21 05:06:58;;;;;;;;;;;;;;;;;;4993121;28;20332;-78
2022/12/21 05:09:25;;;;;;;;;;;;;;;;;;4961031;28;19913;-76
2022/12/21 05:11:51;;;;;;;;;;;;;;;;;;4993295;28;19917;-78
2022/12/21 05:14:17;;;;;;;;;;;;;;;;;;4994199;28;20406;-78
2022/12/21 05:16:42;;;;;;;;;;;;;;;;;;4976867;28;19914;-76
2022/12/21 05:19:07;;;;;;;;;;;;;;;;;;4994062;28;20393;-76
2022/12/21 05:21:33;;;;;;;;;;;;;;;;;;4993083;28;19922;-78
2022/12/21 05:23:58;;;;;;;;;;;;;;;;;;4976408;28;19920;-78
2022/12/21 05:26:23;;;;;;;;;;;;;;;;;;5006832;23;19968;-79
2022/12/21 05:28:49;;;;;;;;;;;;;;;;;;4956596;28;19924;-79
2022/12/21 05:31:14;;;;;;;;;;;;;;;;;;4976080;28;19964;-79
2022/12/21 05:33:39;;;;;;;;;;;;;;;;;;4974697;28;19965;-80
2022/12/21 05:36:05;;;;;;;;;;;;;;;;;;4959664;28;19969;-80
2022/12/21 05:38:30;;;;;;;;;;;;;;;;;;4959030;28;20469;-80
2022/12/21 05:40:55;;;;;;;;;;;;;;;;;;4974734;28;19914;-80
2022/12/21 05:43:21;;;;;;;;;;;;;;;;;;4975562;28;19914;-80
2022/12/21 05:45:46;;;;;;;;;;;;;;;;;;4970040;28;19960;-80
2022/12/21 05:48:12;;;;;;;;;;;;;;;;;;4979056;28;19921;-80
2022/12/21 05:50:37;;;;;;;;;;;;;;;;;;4979747;28;19952;-80
2022/12/21 05:53:02;;;;;;;;;;;;;;;;;;4962712;28;19918;-81
2022/12/21 05:55:31;;;;;;;;;;;;;;;;;;4978279;28;19921;-79
2022/12/21 05:57:56;;;;;;;;;;;;;;;;;;4961710;28;19980;-80
2022/12/21 06:00:22;;;;;;;;;;;;;;;;;;4995675;28;20340;-79
2022/12/21 06:02:47;;;;;;;;;;;;;;;;;;4993335;28;20016;-80
2022/12/21 06:05:12;;;;;;;;;;;;;;;;;;4995930;28;20440;-79
2022/12/21 06:07:38;;;;;;;;;;;;;;;;;;4995085;28;19964;-80
2022/12/21 06:10:03;;;;;;;;;;;;;;;;;;4978098;28;19933;-79
2022/12/21 06:12:29;;;;;;;;;;;;;;;;;;4978473;28;19918;-80
2022/12/21 06:14:54;;;;;;;;;;;;;;;;;;4977790;28;19913;-80
2022/12/21 06:17:20;;;;;;;;;;;;;;;;;;4995642;28;20008;-81
2022/12/21 06:19:45;;;;;;;;;;;;;;;;;;4993959;28;19944;-79
2022/12/21 06:22:11;;;;;;;;;;;;;;;;;;4978849;28;19914;-79
2022/12/21 06:24:36;;;;;;;;;;;;;;;;;;4994716;28;19938;-79
2022/12/21 06:27:01;;;;;;;;;;;;;;;;;;4978664;28;20006;-80
2022/12/21 06:29:27;;;;;;;;;;;;;;;;;;4997533;28;19913;-81
2022/12/21 06:31:52;;;;;;;;;;;;;;;;;;4997446;28;20384;-79
2022/12/21 06:34:18;;;;;;;;;;;;;;;;;;4982875;28;19956;-80
2022/12/21 06:36:43;;;;;;;;;;;;;;;;;;4982577;28;19914;-82
2022/12/21 06:39:09;;;;;;;;;;;;;;;;;;4984844;28;19923;-80
2022/12/21 06:41:34;;;;;;;;;;;;;;;;;;4966376;28;19953;-79
2022/12/21 06:44:00;;;;;;;;;;;;;;;;;;4984119;28;20291;-80
2022/12/21 06:46:25;;;;;;;;;;;;;;;;;;4983173;28;20355;-82
2022/12/21 06:48:51;;;;;;;;;;;;;;;;;;4966844;28;19914;-79
2022/12/21 06:51:16;;;;;;;;;;;;;;;;;;4981072;28;19914;-80
2022/12/21 06:53:42;;;;;;;;;;;;;;;;;;4980269;28;20000;-80
2022/12/21 06:56:07;;;;;;;;;;;;;;;;;;4983186;28;19961;-79
2022/12/21 06:58:33;;;;;;;;;;;;;;;;;;4984179;28;19914;-80
2022/12/21 07:00:58;;;;;;;;;;;;;;;;;;4982430;28;19945;-80
2022/12/21 07:03:24;;;;;;;;;;;;;;;;;;4982580;28;19950;-81
2022/12/21 07:05:49;;;;;;;;;;;;;;;;;;4983958;28;19914;-78
2022/12/21 07:08:15;;;;;;;;;;;;;;;;;;4979151;28;20444;-81
2022/12/21 07:10:40;;;;;;;;;;;;;;;;;;4980629;28;20024;-80
2022/12/21 07:13:06;;;;;;;;;;;;;;;;;;4965918;28;19964;-81
2022/12/21 07:15:31;;;;;;;;;;;;;;;;;;4965701;28;19937;-80
2022/12/21 07:17:56;;;;;;;;;;;;;;;;;;4984144;28;19961;-80
2022/12/21 07:20:22;;;;;;;;;;;;;;;;;;4986509;28;19967;-79
2022/12/21 07:22:47;;;;;;;;;;;;;;;;;;4983479;28;20041;-82
2022/12/21 07:25:13;;;;;;;;;;;;;;;;;;4964513;28;19921;-81
2022/12/21 07:27:38;;;;;;;;;;;;;;;;;;4978895;28;20269;-81
2022/12/21 07:30:04;;;;;;;;;;;;;;;;;;4960010;28;20061;-83
2022/12/21 07:32:29;;;;;;;;;;;;;;;;;;4960589;28;19918;-81
2022/12/21 07:34:55;;;;;;;;;;;;;;;;;;4976387;28;20441;-82
2022/12/21 07:37:20;;;;;;;;;;;;;;;;;;4977324;28;20444;-83
2022/12/21 07:39:46;;;;;;;;;;;;;;;;;;4977893;28;19914;-81
2022/12/21 07:42:12;;;;;;;;;;;;;;;;;;4981531;28;19917;-80
2022/12/21 07:44:39;;;;;;;;;;;;;;;;;;4985502;28;19960;-80
2022/12/21 07:47:16;;;;;;;;;;;;;;;;;;4999667;28;19921;-81
2022/12/21 07:49:41;;;;;;;;;;;;;;;;;;4999884;28;20397;-79
2022/12/21 07:52:06;;;;;;;;;;;;;;;;;;4999787;28;20436;-80
2022/12/21 07:54:32;;;;;;;;;;;;;;;;;;4999951;28;19921;-80
2022/12/21 07:56:59;;;;;;;;;;;;;;;;;;4997373;28;20419;-80
2022/12/21 07:59:24;;;;;;;;;;;;;;;;;;4997385;28;20374;-80
2022/12/21 08:01:50;;;;;;;;;;;;;;;;;;4980335;28;19918;-80
2022/12/21 08:04:15;;;;;;;;;;;;;;;;;;4962111;28;20357;-79
2022/12/21 08:06:40;;;;;;;;;;;;;;;;;;4976559;28;19914;-80
2022/12/21 08:09:06;;;;;;;;;;;;;;;;;;4979231;28;20313;-80
2022/12/21 08:11:31;;;;;;;;;;;;;;;;;;4978820;28;20440;-79
2022/12/21 08:13:57;;;;;;;;;;;;;;;;;;4978776;28;19914;-80
2022/12/21 08:16:22;;;;;;;;;;;;;;;;;;4983906;28;19953;-80
2022/12/21 08:18:48;;;;;;;;;;;;;;;;;;4997448;28;20009;-80
2022/12/21 08:21:13;;;;;;;;;;;;;;;;;;4998092;28;19961;-80
2022/12/21 08:23:39;;;;;;;;;;;;;;;;;;4997478;28;20327;-81
2022/12/21 08:26:04;;;;;;;;;;;;;;;;;;4981417;28;19914;-81
2022/12/21 08:28:30;;;;;;;;;;;;;;;;;;4981417;28;19922;-80
2022/12/21 08:30:55;;;;;;;;;;;;;;;;;;4998015;28;19914;-79
2022/12/21 08:33:20;;;;;;;;;;;;;;;;;;4997551;28;19932;-81
2022/12/21 08:35:46;;;;;;;;;;;;;;;;;;4981228;28;19920;-80
2022/12/21 08:38:11;;;;;;;;;;;;;;;;;;4996825;28;19925;-80
2022/12/21 08:40:37;;;;;;;;;;;;;;;;;;4996562;28;20376;-79
2022/12/21 08:43:02;;;;;;;;;;;;;;;;;;4995808;28;20292;-80
2022/12/21 08:45:27;;;;;;;;;;;;;;;;;;4996981;28;19914;-79
2022/12/21 08:47:53;;;;;;;;;;;;;;;;;;4998635;28;19949;-79
2022/12/21 08:50:18;;;;;;;;;;;;;;;;;;4978669;28;20374;-79
2022/12/21 08:52:44;;;;;;;;;;;;;;;;;;4977474;28;19925;-79
2022/12/21 08:55:09;;;;;;;;;;;;;;;;;;4978588;28;20378;-80
2022/12/21 08:57:34;;;;;;;;;;;;;;;;;;4975142;28;19914;-80
2022/12/21 09:00:00;;;;;;;;;;;;;;;;;;4975646;28;19914;-81
2022/12/21 09:02:25;;;;;;;;;;;;;;;;;;4975238;28;20020;-79
2022/12/21 09:04:51;;;;;;;;;;;;;;;;;;4976792;28;19910;-81
2022/12/21 09:07:16;;;;;;;;;;;;;;;;;;4994015;28;20341;-81
2022/12/21 09:09:41;;;;;;;;;;;;;;;;;;4992895;28;20012;-82
2022/12/21 09:12:07;;;;;;;;;;;;;;;;;;4994106;28;19917;-79
2022/12/21 09:14:33;;;;;;;;;;;;;;;;;;4992868;28;19989;-81
2022/12/21 09:17:01;;;;;;;;;;;;;;;;;;4992864;28;20374;-82
2022/12/21 09:19:26;;;;;;;;;;;;;;;;;;4994297;28;19913;-81
2022/12/21 09:21:52;;;;;;;;;;;;;;;;;;4992388;28;20384;-83
2022/12/21 09:24:17;;;;;;;;;;;;;;;;;;4992848;28;19920;-82
2022/12/21 09:26:42;;;;;;;;;;;;;;;;;;4992766;28;20016;-82
2022/12/21 09:29:08;;;;;;;;;;;;;;;;;;4993814;28;19913;-81
2022/12/21 09:31:33;;;;;;;;;;;;;;;;;;4992324;28;19937;-81
2022/12/21 09:33:59;;;;;;;;;;;;;;;;;;4960259;28;20374;-85
2022/12/21 09:36:24;;;;;;;;;;;;;;;;;;4992445;28;19914;-85
2022/12/21 09:38:49;;;;;;;;;;;;;;;;;;4993011;28;20369;-82
2022/12/21 09:41:15;;;;;;;;;;;;;;;;;;4991994;28;19917;-82
2022/12/21 09:43:40;;;;;;;;;;;;;;;;;;4993959;28;20305;-85
2022/12/21 09:46:06;;;;;;;;;;;;;;;;;;4994726;28;19948;-84
2022/12/21 09:48:31;;;;;;;;;;;;;;;;;;4981191;28;20388;-82
2022/12/21 09:50:57;;;;;;;;;;;;;;;;;;5007337;28;19914;-80
2022/12/21 09:53:22;;;;;;;;;;;;;;;;;;5007626;28;19949;-82
2022/12/21 09:55:47;;;;;;;;;;;;;;;;;;5005042;28;20377;-81
2022/12/21 09:58:13;;;;;;;;;;;;;;;;;;5002519;28;20365;-83
2022/12/21 10:00:38;;;;;;;;;;;;;;;;;;5007973;28;19914;-81
2022/12/21 10:03:04;;;;;;;;;;;;;;;;;;4989753;28;20333;-83
2022/12/21 10:05:29;;;;;;;;;;;;;;;;;;5005294;28;19986;-85
2022/12/21 10:07:55;;;;;;;;;;;;;;;;;;5002737;28;19914;-86
2022/12/21 10:10:20;;;;;;;;;;;;;;;;;;4983234;28;19918;-86
2022/12/21 10:12:45;;;;;;;;;;;;;;;;;;5001420;28;19953;-82
2022/12/21 10:15:11;;;;;;;;;;;;;;;;;;4987808;28;19913;-82
2022/12/21 10:17:36;;;;;;;;;;;;;;;;;;4981601;28;19960;-81
2022/12/21 10:20:02;;;;;;;;;;;;;;;;;;4999607;28;20008;-80
2022/12/21 10:22:28;;;;;;;;;;;;;;;;;;4998831;28;19961;-80
2022/12/21 10:24:53;;;;;;;;;;;;;;;;;;4996797;28;19921;-79
2022/12/21 10:27:18;;;;;;;;;;;;;;;;;;5008826;28;19924;-83
2022/12/21 10:29:44;;;;;;;;;;;;;;;;;;4993899;28;19945;-83
2022/12/21 10:32:09;;;;;;;;;;;;;;;;;;4983009;28;19918;-81
2022/12/21 10:34:35;;;;;;;;;;;;;;;;;;4987500;28;19981;-81
2022/12/21 10:37:00;;;;;;;;;;;;;;;;;;4971348;28;19914;-80
2022/12/21 10:39:26;;;;;;;;;;;;;;;;;;4985860;28;19914;-81
2022/12/21 10:41:51;;;;;;;;;;;;;;;;;;4983621;28;19914;-82
2022/12/21 10:44:16;;;;;;;;;;;;;;;;;;4966123;28;19969;-80
2022/12/21 10:46:42;;;;;;;;;;;;;;;;;;4984695;28;19910;-80
2022/12/21 10:49:07;;;;;;;;;;;;;;;;;;4970049;28;19915;-80
2022/12/21 10:51:33;;;;;;;;;;;;;;;;;;4987011;28;19925;-81
2022/12/21 10:53:58;;;;;;;;;;;;;;;;;;4984136;28;19918;-81
2022/12/21 10:56:24;;;;;;;;;;;;;;;;;;4982149;28;19915;-81
2022/12/21 10:58:49;;;;;;;;;;;;;;;;;;4980902;28;19921;-79
2022/12/21 11:01:14;;;;;;;;;;;;;;;;;;4986213;28;19921;-80
2022/12/21 11:03:40;;;;;;;;;;;;;;;;;;4987288;28;19951;-80
2022/12/21 11:06:05;;;;;;;;;;;;;;;;;;5002237;28;19914;-82
2022/12/21 11:08:30;;;;;;;;;;;;;;;;;;4989544;28;19926;-80
2022/12/21 11:10:56;;;;;;;;;;;;;;;;;;4969621;28;19944;-80
2022/12/21 11:13:21;;;;;;;;;;;;;;;;;;4989510;28;20282;-77
2022/12/21 11:15:47;;;;;;;;;;;;;;;;;;4986536;28;20188;-80
2022/12/21 11:18:12;;;;;;;;;;;;;;;;;;4967859;28;19910;-80
2022/12/21 11:20:38;;;;;;;;;;;;;;;;;;4968082;28;20337;-80
2022/12/21 11:23:03;;;;;;;;;;;;;;;;;;5007215;28;19980;-80
2022/12/21 11:25:28;;;;;;;;;;;;;;;;;;5001000;28;19987;-78
2022/12/21 11:27:54;;;;;;;;;;;;;;;;;;5003735;23;20419;-75
2022/12/21 11:30:19;;;;;;;;;;;;;;;;;;5019731;28;19913;-77
2022/12/21 11:32:45;;;;;;;;;;;;;;;;;;5017694;28;19956;-76
2022/12/21 11:35:10;;;;;;;;;;;;;;;;;;5018222;28;19913;-78
2022/12/21 11:37:36;;;;;;;;;;;;;;;;;;5000781;28;19914;-77
2022/12/21 11:40:01;;;;;;;;;;;;;;;;;;5018940;28;19914;-81
2022/12/21 11:42:27;;;;;;;;;;;;;;;;;;4997692;28;19965;-80
2022/12/21 11:44:53;;;;;;;;;;;;;;;;;;4999611;28;20000;-81
2022/12/21 11:47:18;;;;;;;;;;;;;;;;;;5000248;28;20408;-81
2022/12/21 11:49:44;;;;;;;;;;;;;;;;;;4997771;28;19918;-81
2022/12/21 11:52:09;;;;;;;;;;;;;;;;;;5013181;28;19937;-80
2022/12/21 11:54:35;;;;;;;;;;;;;;;;;;4998982;28;19960;-80
2022/12/21 11:57:00;;;;;;;;;;;;;;;;;;5002588;28;19914;-80
2022/12/21 11:59:25;;;;;;;;;;;;;;;;;;4996829;28;19913;-78
2022/12/21 12:01:51;;;;;;;;;;;;;;;;;;4996796;28;20392;-79
2022/12/21 12:04:16;;;;;;;;;;;;;;;;;;4980013;28;20455;-79
2022/12/21 12:06:42;;;;;;;;;;;;;;;;;;5012986;28;20006;-80
2022/12/21 12:09:07;;;;;;;;;;;;;;;;;;4998840;28;20305;-81
2022/12/21 12:11:33;;;;;;;;;;;;;;;;;;4998346;28;19914;-81
2022/12/21 12:13:58;;;;;;;;;;;;;;;;;;5000426;28;19925;-81
2022/12/21 12:16:24;;;;;;;;;;;;;;;;;;5001862;28;20393;-81
2022/12/21 12:18:49;;;;;;;;;;;;;;;;;;5003259;28;19917;-81
2022/12/21 12:21:15;;;;;;;;;;;;;;;;;;5021109;28;20009;-82
2022/12/21 12:23:40;;;;;;;;;;;;;;;;;;5022183;28;19914;-82
2022/12/21 12:26:06;;;;;;;;;;;;;;;;;;5002449;28;19914;-80
2022/12/21 12:28:31;;;;;;;;;;;;;;;;;;5001415;28;19922;-81
2022/12/21 12:30:57;;;;;;;;;;;;;;;;;;5018850;28;20021;-80
2022/12/21 12:33:22;;;;;;;;;;;;;;;;;;5018894;28;19925;-78
2022/12/21 12:35:48;;;;;;;;;;;;;;;;;;5020020;28;19921;-81
2022/12/21 12:38:14;;;;;;;;;;;;;;;;;;5016770;28;19922;-80
2022/12/21 12:40:40;;;;;;;;;;;;;;;;;;5015874;28;19913;-81
2022/12/21 12:43:05;;;;;;;;;;;;;;;;;;5005683;28;19988;-81
2022/12/21 12:45:30;;;;;;;;;;;;;;;;;;5017439;28;20348;-80
2022/12/21 12:47:56;;;;;;;;;;;;;;;;;;5016836;28;19914;-82
2022/12/21 12:50:21;;;;;;;;;;;;;;;;;;5006980;28;19913;-82
2022/12/21 12:52:47;;;;;;;;;;;;;;;;;;5004612;28;19922;-82
2022/12/21 12:55:13;;;;;;;;;;;;;;;;;;5012850;28;19914;-83
2022/12/21 12:57:38;;;;;;;;;;;;;;;;;;4992004;28;19920;-81
2022/12/21 13:00:04;;;;;;;;;;;;;;;;;;5023386;28;19924;-82
2022/12/21 13:02:29;;;;;;;;;;;;;;;;;;5023674;28;19952;-81
2022/12/21 13:04:55;;;;;;;;;;;;;;;;;;5023009;28;19983;-81
2022/12/21 13:07:20;;;;;;;;;;;;;;;;;;5013542;28;19945;-81
2022/12/21 13:09:46;;;;;;;;;;;;;;;;;;5026552;28;19897;-81
2022/12/21 13:12:12;;;;;;;;;;;;;;;;;;5008677;28;19902;-81
2022/12/21 13:14:38;;;;;;;;;;;;;;;;;;5007524;28;19918;-81
2022/12/21 13:17:03;;;;;;;;;;;;;;;;;;5003212;28;19929;-80
2022/12/21 13:19:29;;;;;;;;;;;;;;;;;;5001736;28;20374;-80
2022/12/21 13:21:54;;;;;;;;;;;;;;;;;;5005785;28;19913;-80
2022/12/21 13:24:20;;;;;;;;;;;;;;;;;;5000733;28;19984;-80
2022/12/21 13:26:45;;;;;;;;;;;;;;;;;;4966932;28;19922;-80
2022/12/21 13:29:11;;;;;;;;;;;;;;;;;;5009221;28;19928;-81
2022/12/21 13:31:37;;;;;;;;;;;;;;;;;;5033940;28;19914;-81
2022/12/21 13:34:03;;;;;;;;;;;;;;;;;;5012794;28;19980;-80
2022/12/21 13:36:29;;;;;;;;;;;;;;;;;;5012737;28;19914;-81
2022/12/21 13:41:44;;;;;;;;;;;;;;;;;;5232966;23;19921;-84
2022/12/21 13:44:15;;;;;;;;;;;;;;;;;;4999573;28;19925;-84
2022/12/21 13:49:22;;;;;;;;;;;;;;;;;;5455283;22;19926;-81
2022/12/21 13:51:48;;;;;;;;;;;;;;;;;;4986034;28;19914;-82
2022/12/21 13:54:13;;;;;;;;;;;;;;;;;;5002120;28;19977;-82
2022/12/21 13:56:39;;;;;;;;;;;;;;;;;;4995640;28;19922;-81
2022/12/21 13:59:04;;;;;;;;;;;;;;;;;;4981550;28;19922;-82
2022/12/21 14:01:30;;;;;;;;;;;;;;;;;;4964500;28;19921;-82
2022/12/21 14:03:56;;;;;;;;;;;;;;;;;;4977544;28;19921;-81
2022/12/21 14:06:21;;;;;;;;;;;;;;;;;;4978887;28;20005;-81
2022/12/21 14:08:46;;;;;;;;;;;;;;;;;;4978518;28;20377;-81
2022/12/21 14:11:12;;;;;;;;;;;;;;;;;;4961509;28;19941;-81
2022/12/21 14:13:37;;;;;;;;;;;;;;;;;;4968522;28;19937;-82
2022/12/21 14:16:03;;;;;;;;;;;;;;;;;;4964735;28;19920;-81
2022/12/21 14:18:31;;;;;;;;;;;;;;;;;;4982293;28;19914;-82
2022/12/21 14:20:57;;;;;;;;;;;;;;;;;;4985079;28;19920;-82
2022/12/21 14:23:23;;;;;;;;;;;;;;;;;;4984476;28;19933;-82
2022/12/21 14:25:48;;;;;;;;;;;;;;;;;;4984444;28;19914;-82
2022/12/21 14:28:14;;;;;;;;;;;;;;;;;;4983613;28;19925;-82
2022/12/21 14:30:39;;;;;;;;;;;;;;;;;;4985336;28;20488;-82
2022/12/21 14:33:05;;;;;;;;;;;;;;;;;;4984004;28;20436;-82
2022/12/21 14:35:30;;;;;;;;;;;;;;;;;;4984429;28;19921;-82
2022/12/21 14:37:56;;;;;;;;;;;;;;;;;;4985202;28;20348;-82
2022/12/21 14:40:21;;;;;;;;;;;;;;;;;;4981565;28;20004;-81
2022/12/21 14:42:47;;;;;;;;;;;;;;;;;;4980785;28;20293;-81
2022/12/21 14:45:12;;;;;;;;;;;;;;;;;;4965812;28;20293;-82
2022/12/21 14:47:38;;;;;;;;;;;;;;;;;;4965931;28;19920;-82
2022/12/21 14:50:03;;;;;;;;;;;;;;;;;;4983463;28;19929;-82
2022/12/21 14:52:30;;;;;;;;;;;;;;;;;;5000176;28;19990;-82
2022/12/21 14:54:55;;;;;;;;;;;;;;;;;;4999843;28;20433;-81
2022/12/21 14:57:21;;;;;;;;;;;;;;;;;;4985554;28;19905;-82
2022/12/21 14:59:47;;;;;;;;;;;;;;;;;;4986000;28;19914;-82
2022/12/21 15:02:12;;;;;;;;;;;;;;;;;;4980789;28;19918;-81
2022/12/21 15:04:38;;;;;;;;;;;;;;;;;;4998642;28;19914;-81
2022/12/21 15:07:03;;;;;;;;;;;;;;;;;;4978054;28;19957;-81
2022/12/21 15:09:29;;;;;;;;;;;;;;;;;;4994346;28;19899;-81
2022/12/21 15:11:54;;;;;;;;;;;;;;;;;;4995978;28;19914;-81
2022/12/21 15:14:20;;;;;;;;;;;;;;;;;;4997236;28;19905;-81
2022/12/21 15:16:48;;;;;;;;;;;;;;;;;;5000678;28;20184;-83
2022/12/21 15:19:25;;;;;;;;;;;;;;;;;;5296587;23;19917;-86
2022/12/21 15:22:33;;;;;;;;;;;;;;;;;;5198796;22;19918;-86
2022/12/21 15:24:59;;;;;;;;;;;;;;;;;;4989229;28;19925;-86
2022/12/21 15:27:27;;;;;;;;;;;;;;;;;;5005096;28;19936;-85
2022/12/21 15:29:54;;;;;;;;;;;;;;;;;;5004705;28;19902;-86
2022/12/21 15:32:21;;;;;;;;;;;;;;;;;;5004925;28;19925;-87
2022/12/21 15:34:51;;;;;;;;;;;;;;;;;;4988906;28;19929;-87
2022/12/21 15:37:19;;;;;;;;;;;;;;;;;;4988389;28;19918;-86
2022/12/21 15:39:45;;;;;;;;;;;;;;;;;;4988134;28;19981;-86
2022/12/21 15:42:18;;;;;;;;;;;;;;;;;;4989101;28;19988;-86
2022/12/21 15:44:52;;;;;;;;;;;;;;;;;;5005154;28;19906;-86
2022/12/21 15:47:24;;;;;;;;;;;;;;;;;;5004961;28;19921;-85
2022/12/21 15:49:53;;;;;;;;;;;;;;;;;;5191658;23;19963;-85
2022/12/21 15:52:29;;;;;;;;;;;;;;;;;;5067817;23;19909;-85
2022/12/21 15:57:47;;;;;;;;;;;;;;;;;;5167921;22;19914;-82
2022/12/21 16:02:53;;;;;;;;;;;;;;;;;;5064690;23;19933;-83
2022/12/21 16:05:19;;;;;;;;;;;;;;;;;;4998668;28;19914;-80
2022/12/21 16:07:45;;;;;;;;;;;;;;;;;;5014220;28;20369;-79
2022/12/21 16:10:10;;;;;;;;;;;;;;;;;;4996440;28;20001;-78
2022/12/21 16:12:35;;;;;;;;;;;;;;;;;;4996010;28;19968;-78
2022/12/21 16:15:01;;;;;;;;;;;;;;;;;;4996667;28;20296;-78
2022/12/21 16:17:26;;;;;;;;;;;;;;;;;;4996685;28;19952;-79
2022/12/21 16:19:52;;;;;;;;;;;;;;;;;;4996789;28;20377;-79
2022/12/21 16:22:17;;;;;;;;;;;;;;;;;;4996381;28;19913;-79
2022/12/21 16:24:42;;;;;;;;;;;;;;;;;;4995873;28;20013;-79
2022/12/21 16:27:08;;;;;;;;;;;;;;;;;;4996101;28;19914;-78
2022/12/21 16:29:33;;;;;;;;;;;;;;;;;;4997921;28;19914;-79
2022/12/21 16:31:59;;;;;;;;;;;;;;;;;;4995670;28;20381;-78
2022/12/21 16:34:24;;;;;;;;;;;;;;;;;;4996345;28;19964;-79
2022/12/21 16:36:50;;;;;;;;;;;;;;;;;;4996675;28;19925;-79
2022/12/21 16:39:15;;;;;;;;;;;;;;;;;;4996047;28;20370;-79
2022/12/21 16:41:41;;;;;;;;;;;;;;;;;;4996083;28;19914;-78
2022/12/21 16:44:06;;;;;;;;;;;;;;;;;;4994579;28;19961;-78
2022/12/21 16:46:31;;;;;;;;;;;;;;;;;;4996564;28;19914;-78
2022/12/21 16:48:57;;;;;;;;;;;;;;;;;;4996247;28;19917;-78
2022/12/21 16:51:22;;;;;;;;;;;;;;;;;;4995701;28;20377;-78
2022/12/21 16:53:48;;;;;;;;;;;;;;;;;;4995476;28;19972;-78